sensor_id;sensor_type;location;lat;lon;timestamp;temperature;humidity
66871;DHT22;53780;44.998;9.926;2023-06-22T00:00:33;25.01;66.54
66871;DHT22;53780;44.998;9.926;2023-06-22T00:03:37;24.96;66.55
66871;DHT22;53780;44.998;9.926;2023-06-22T00:06:42;24.88;66.69
66871;DHT22;53780;44.998;9.926;2023-06-22T00:09:46;24.91;66.49
66871;DHT22;53780;44.998;9.926;2023-06-22T00:12:50;24.85;66.65
66871;DHT22;53780;44.998;9.926;2023-06-22T00:15:53;24.78;67.11
66871;DHT22;53780;44.998;9.926;2023-06-22T00:18:58;24.75;67.42
66871;DHT22;53780;44.998;9.926;2023-06-22T00:22:04;24.71;67.65
66871;DHT22;53780;44.998;9.926;2023-06-22T00:25:08;24.67;68.05
66871;DHT22;53780;44.998;9.926;2023-06-22T00:28:12;24.64;67.88
66871;DHT22;53780;44.998;9.926;2023-06-22T00:31:16;24.57;68.17
66871;DHT22;53780;44.998;9.926;2023-06-22T00:34:20;24.56;68.18
66871;DHT22;53780;44.998;9.926;2023-06-22T00:37:24;24.52;68.33
66871;DHT22;53780;44.998;9.926;2023-06-22T00:40:31;24.49;68.35
66871;DHT22;53780;44.998;9.926;2023-06-22T00:43:35;24.43;68.51
66871;DHT22;53780;44.998;9.926;2023-06-22T00:46:40;24.36;68.55
66871;DHT22;53780;44.998;9.926;2023-06-22T00:49:45;24.29;68.76
66871;DHT22;53780;44.998;9.926;2023-06-22T00:52:56;24.25;68.83
66871;DHT22;53780;44.998;9.926;2023-06-22T00:56:00;24.20;68.82
66871;DHT22;53780;44.998;9.926;2023-06-22T00:59:06;24.22;68.90
66871;DHT22;53780;44.998;9.926;2023-06-22T01:02:10;24.22;69.00
66871;DHT22;53780;44.998;9.926;2023-06-22T01:05:14;24.17;69.02
66871;DHT22;53780;44.998;9.926;2023-06-22T01:11:45;23.98;69.61
66871;DHT22;53780;44.998;9.926;2023-06-22T01:15:04;23.86;70.23
66871;DHT22;53780;44.998;9.926;2023-06-22T01:18:11;23.81;70.92
66871;DHT22;53780;44.998;9.926;2023-06-22T01:21:19;23.77;71.00
66871;DHT22;53780;44.998;9.926;2023-06-22T01:24:32;23.77;70.87
66871;DHT22;53780;44.998;9.926;2023-06-22T01:31:05;23.79;70.99
66871;DHT22;53780;44.998;9.926;2023-06-22T01:34:11;23.79;71.37
66871;DHT22;53780;44.998;9.926;2023-06-22T01:37:16;23.72;71.62
66871;DHT22;53780;44.998;9.926;2023-06-22T01:40:21;23.69;71.78
66871;DHT22;53780;44.998;9.926;2023-06-22T01:43:26;23.69;71.69
66871;DHT22;53780;44.998;9.926;2023-06-22T01:46:34;23.68;71.84
66871;DHT22;53780;44.998;9.926;2023-06-22T01:49:38;23.69;72.15
66871;DHT22;53780;44.998;9.926;2023-06-22T01:52:43;23.68;72.08
66871;DHT22;53780;44.998;9.926;2023-06-22T01:55:47;23.69;72.29
66871;DHT22;53780;44.998;9.926;2023-06-22T02:02:14;23.68;72.23
66871;DHT22;53780;44.998;9.926;2023-06-22T02:05:19;23.69;72.45
66871;DHT22;53780;44.998;9.926;2023-06-22T02:08:29;23.69;72.28
66871;DHT22;53780;44.998;9.926;2023-06-22T02:11:37;23.68;72.12
66871;DHT22;53780;44.998;9.926;2023-06-22T02:14:42;23.65;72.28
66871;DHT22;53780;44.998;9.926;2023-06-22T02:17:47;23.64;72.11
66871;DHT22;53780;44.998;9.926;2023-06-22T02:20:51;23.69;72.07
66871;DHT22;53780;44.998;9.926;2023-06-22T02:23:56;23.72;72.02
66871;DHT22;53780;44.998;9.926;2023-06-22T02:27:01;23.71;71.80
66871;DHT22;53780;44.998;9.926;2023-06-22T02:30:06;23.67;71.59
66871;DHT22;53780;44.998;9.926;2023-06-22T02:33:10;23.68;71.75
66871;DHT22;53780;44.998;9.926;2023-06-22T02:36:15;23.67;71.79
66871;DHT22;53780;44.998;9.926;2023-06-22T02:39:21;23.65;71.79
66871;DHT22;53780;44.998;9.926;2023-06-22T02:42:27;23.64;71.89
66871;DHT22;53780;44.998;9.926;2023-06-22T02:45:31;23.61;71.55
66871;DHT22;53780;44.998;9.926;2023-06-22T02:48:35;23.61;71.65
66871;DHT22;53780;44.998;9.926;2023-06-22T02:51:42;23.61;71.52
66871;DHT22;53780;44.998;9.926;2023-06-22T02:54:46;23.58;71.52
66871;DHT22;53780;44.998;9.926;2023-06-22T02:57:52;23.58;71.38
66871;DHT22;53780;44.998;9.926;2023-06-22T03:00:57;23.57;71.51
66871;DHT22;53780;44.998;9.926;2023-06-22T03:04:01;23.55;71.15
66871;DHT22;53780;44.998;9.926;2023-06-22T03:07:05;23.58;70.75
66871;DHT22;53780;44.998;9.926;2023-06-22T03:10:12;23.55;70.64
66871;DHT22;53780;44.998;9.926;2023-06-22T03:13:17;23.53;70.18
66871;DHT22;53780;44.998;9.926;2023-06-22T03:16:20;23.51;69.64
66871;DHT22;53780;44.998;9.926;2023-06-22T03:19:25;23.53;69.90
66871;DHT22;53780;44.998;9.926;2023-06-22T03:22:29;23.50;69.36
66871;DHT22;53780;44.998;9.926;2023-06-22T03:25:35;23.50;69.01
66871;DHT22;53780;44.998;9.926;2023-06-22T03:28:39;23.50;68.89
66871;DHT22;53780;44.998;9.926;2023-06-22T03:31:45;23.51;68.69
66871;DHT22;53780;44.998;9.926;2023-06-22T03:34:49;23.53;68.46
66871;DHT22;53780;44.998;9.926;2023-06-22T03:37:54;23.51;68.58
66871;DHT22;53780;44.998;9.926;2023-06-22T03:40:58;23.47;68.21
66871;DHT22;53780;44.998;9.926;2023-06-22T03:44:03;23.49;68.26
66871;DHT22;53780;44.998;9.926;2023-06-22T03:47:07;23.50;68.41
66871;DHT22;53780;44.998;9.926;2023-06-22T03:50:13;23.44;69.32
66871;DHT22;53780;44.998;9.926;2023-06-22T03:53:18;23.43;68.97
66871;DHT22;53780;44.998;9.926;2023-06-22T03:56:22;23.39;69.00
66871;DHT22;53780;44.998;9.926;2023-06-22T03:59:26;23.39;69.27
66871;DHT22;53780;44.998;9.926;2023-06-22T04:02:30;23.31;69.53
66871;DHT22;53780;44.998;9.926;2023-06-22T04:05:33;23.28;69.94
66871;DHT22;53780;44.998;9.926;2023-06-22T04:08:37;23.31;69.81
66871;DHT22;53780;44.998;9.926;2023-06-22T04:11:41;23.33;69.77
66871;DHT22;53780;44.998;9.926;2023-06-22T04:14:45;23.33;69.95
66871;DHT22;53780;44.998;9.926;2023-06-22T04:17:49;23.39;69.56
66871;DHT22;53780;44.998;9.926;2023-06-22T04:20:52;23.44;70.31
66871;DHT22;53780;44.998;9.926;2023-06-22T04:23:56;23.49;70.49
66871;DHT22;53780;44.998;9.926;2023-06-22T04:27:00;23.51;70.48
66871;DHT22;53780;44.998;9.926;2023-06-22T04:30:07;23.53;69.83
66871;DHT22;53780;44.998;9.926;2023-06-22T04:33:15;23.60;69.86
66871;DHT22;53780;44.998;9.926;2023-06-22T04:36:19;23.67;69.98
66871;DHT22;53780;44.998;9.926;2023-06-22T04:39:24;23.77;69.46
66871;DHT22;53780;44.998;9.926;2023-06-22T04:42:30;23.89;68.91
66871;DHT22;53780;44.998;9.926;2023-06-22T04:45:35;24.02;68.85
66871;DHT22;53780;44.998;9.926;2023-06-22T04:48:41;24.15;68.72
66871;DHT22;53780;44.998;9.926;2023-06-22T04:51:45;24.27;67.77
66871;DHT22;53780;44.998;9.926;2023-06-22T04:54:49;24.41;67.09
66871;DHT22;53780;44.998;9.926;2023-06-22T04:57:59;24.56;66.96
66871;DHT22;53780;44.998;9.926;2023-06-22T05:01:08;24.77;66.93
66871;DHT22;53780;44.998;9.926;2023-06-22T05:04:12;24.96;66.68
66871;DHT22;53780;44.998;9.926;2023-06-22T05:07:16;25.16;66.39
66871;DHT22;53780;44.998;9.926;2023-06-22T05:10:20;25.35;65.88
66871;DHT22;53780;44.998;9.926;2023-06-22T05:13:24;25.51;65.73
66871;DHT22;53780;44.998;9.926;2023-06-22T05:16:29;25.66;65.75
66871;DHT22;53780;44.998;9.926;2023-06-22T05:19:34;25.81;64.46
66871;DHT22;53780;44.998;9.926;2023-06-22T05:22:38;25.88;63.12
66871;DHT22;53780;44.998;9.926;2023-06-22T05:25:42;25.94;63.38
66871;DHT22;53780;44.998;9.926;2023-06-22T05:28:47;26.02;63.44
66871;DHT22;53780;44.998;9.926;2023-06-22T05:31:51;26.15;63.19
66871;DHT22;53780;44.998;9.926;2023-06-22T05:34:55;26.39;62.44
66871;DHT22;53780;44.998;9.926;2023-06-22T05:37:59;26.64;62.05
66871;DHT22;53780;44.998;9.926;2023-06-22T05:41:03;26.94;62.26
66871;DHT22;53780;44.998;9.926;2023-06-22T05:44:07;27.18;61.53
66871;DHT22;53780;44.998;9.926;2023-06-22T05:47:11;27.38;60.38
66871;DHT22;53780;44.998;9.926;2023-06-22T05:50:15;27.60;60.47
66871;DHT22;53780;44.998;9.926;2023-06-22T05:53:20;27.77;60.00
66871;DHT22;53780;44.998;9.926;2023-06-22T05:56:24;27.93;59.85
66871;DHT22;53780;44.998;9.926;2023-06-22T05:59:29;28.13;60.05
66871;DHT22;53780;44.998;9.926;2023-06-22T06:02:32;28.37;59.67
66871;DHT22;53780;44.998;9.926;2023-06-22T06:05:37;28.55;58.36
66871;DHT22;53780;44.998;9.926;2023-06-22T06:08:42;28.76;57.25
66871;DHT22;53780;44.998;9.926;2023-06-22T06:11:46;28.99;56.92
66871;DHT22;53780;44.998;9.926;2023-06-22T06:14:53;29.17;55.98
66871;DHT22;53780;44.998;9.926;2023-06-22T06:17:59;29.35;55.49
66871;DHT22;53780;44.998;9.926;2023-06-22T06:21:03;29.58;55.50
66871;DHT22;53780;44.998;9.926;2023-06-22T06:24:07;29.78;55.11
66871;DHT22;53780;44.998;9.926;2023-06-22T06:27:12;29.98;53.90
66871;DHT22;53780;44.998;9.926;2023-06-22T06:30:34;30.21;53.16
66871;DHT22;53780;44.998;9.926;2023-06-22T06:33:45;30.40;53.30
66871;DHT22;53780;44.998;9.926;2023-06-22T06:36:49;30.61;52.30
66871;DHT22;53780;44.998;9.926;2023-06-22T06:39:53;30.82;52.09
66871;DHT22;53780;44.998;9.926;2023-06-22T06:42:57;31.09;51.27
66871;DHT22;53780;44.998;9.926;2023-06-22T06:46:03;31.27;51.35
66871;DHT22;53780;44.998;9.926;2023-06-22T06:49:07;31.49;50.93
66871;DHT22;53780;44.998;9.926;2023-06-22T06:52:12;31.73;49.49
66871;DHT22;53780;44.998;9.926;2023-06-22T06:55:17;31.91;48.32
66871;DHT22;53780;44.998;9.926;2023-06-22T06:58:20;32.02;46.44
66871;DHT22;53780;44.998;9.926;2023-06-22T07:01:26;32.15;46.70
66871;DHT22;53780;44.998;9.926;2023-06-22T07:04:30;32.36;46.57
66871;DHT22;53780;44.998;9.926;2023-06-22T07:07:35;32.57;45.98
66871;DHT22;53780;44.998;9.926;2023-06-22T07:10:39;32.77;44.59
66871;DHT22;53780;44.998;9.926;2023-06-22T07:13:44;32.86;43.71
66871;DHT22;53780;44.998;9.926;2023-06-22T07:16:48;32.67;41.66
66871;DHT22;53780;44.998;9.926;2023-06-22T07:19:52;32.35;42.08
66871;DHT22;53780;44.998;9.926;2023-06-22T07:22:57;32.18;43.35
66871;DHT22;53780;44.998;9.926;2023-06-22T07:26:02;32.12;44.06
66871;DHT22;53780;44.998;9.926;2023-06-22T07:29:06;32.16;43.77
66871;DHT22;53780;44.998;9.926;2023-06-22T07:32:11;32.18;43.86
66871;DHT22;53780;44.998;9.926;2023-06-22T07:35:15;32.28;43.78
66871;DHT22;53780;44.998;9.926;2023-06-22T07:38:22;32.40;44.11
66871;DHT22;53780;44.998;9.926;2023-06-22T07:41:27;32.57;43.94
66871;DHT22;53780;44.998;9.926;2023-06-22T07:44:31;32.84;44.46
66871;DHT22;53780;44.998;9.926;2023-06-22T07:47:36;33.07;43.60
66871;DHT22;53780;44.998;9.926;2023-06-22T07:50:40;33.22;42.91
66871;DHT22;53780;44.998;9.926;2023-06-22T07:53:48;33.17;42.26
66871;DHT22;53780;44.998;9.926;2023-06-22T07:56:52;33.12;42.60
66871;DHT22;53780;44.998;9.926;2023-06-22T07:59:56;33.36;43.19
66871;DHT22;53780;44.998;9.926;2023-06-22T08:03:01;33.63;43.77
66871;DHT22;53780;44.998;9.926;2023-06-22T08:06:09;33.90;43.42
66871;DHT22;53780;44.998;9.926;2023-06-22T08:09:13;34.10;42.55
66871;DHT22;53780;44.998;9.926;2023-06-22T08:12:18;34.28;42.45
66871;DHT22;53780;44.998;9.926;2023-06-22T08:15:23;34.40;42.29
66871;DHT22;53780;44.998;9.926;2023-06-22T08:18:28;34.55;42.61
66871;DHT22;53780;44.998;9.926;2023-06-22T08:21:32;34.55;41.27
66871;DHT22;53780;44.998;9.926;2023-06-22T08:24:39;34.58;42.01
66871;DHT22;53780;44.998;9.926;2023-06-22T08:27:47;34.75;42.03
66871;DHT22;53780;44.998;9.926;2023-06-22T08:30:54;34.73;42.22
66871;DHT22;53780;44.998;9.926;2023-06-22T08:34:02;34.75;41.20
66871;DHT22;53780;44.998;9.926;2023-06-22T08:37:06;34.79;40.34
66871;DHT22;53780;44.998;9.926;2023-06-22T08:40:11;34.72;40.30
66871;DHT22;53780;44.998;9.926;2023-06-22T08:43:15;34.61;40.79
66871;DHT22;53780;44.998;9.926;2023-06-22T08:46:19;34.69;41.51
66871;DHT22;53780;44.998;9.926;2023-06-22T08:49:27;34.90;40.22
66871;DHT22;53780;44.998;9.926;2023-06-22T08:52:31;34.96;39.18
66871;DHT22;53780;44.998;9.926;2023-06-22T08:55:35;35.13;41.54
66871;DHT22;53780;44.998;9.926;2023-06-22T08:58:39;35.37;39.43
66871;DHT22;53780;44.998;9.926;2023-06-22T09:01:43;35.50;39.36
66871;DHT22;53780;44.998;9.926;2023-06-22T09:04:52;35.66;39.55
66871;DHT22;53780;44.998;9.926;2023-06-22T09:07:59;35.68;38.85
66871;DHT22;53780;44.998;9.926;2023-06-22T09:11:03;35.74;39.20
66871;DHT22;53780;44.998;9.926;2023-06-22T09:14:09;35.91;40.00
66871;DHT22;53780;44.998;9.926;2023-06-22T09:17:13;36.08;39.18
66871;DHT22;53780;44.998;9.926;2023-06-22T09:20:17;36.22;39.51
66871;DHT22;53780;44.998;9.926;2023-06-22T09:23:22;36.44;39.01
66871;DHT22;53780;44.998;9.926;2023-06-22T09:26:26;36.68;37.87
66871;DHT22;53780;44.998;9.926;2023-06-22T09:29:30;36.85;37.59
66871;DHT22;53780;44.998;9.926;2023-06-22T09:32:37;37.09;39.11
66871;DHT22;53780;44.998;9.926;2023-06-22T09:35:41;37.35;37.38
66871;DHT22;53780;44.998;9.926;2023-06-22T09:38:45;37.49;38.53
66871;DHT22;53780;44.998;9.926;2023-06-22T09:41:49;37.67;38.26
66871;DHT22;53780;44.998;9.926;2023-06-22T09:44:53;37.84;37.80
66871;DHT22;53780;44.998;9.926;2023-06-22T09:47:57;37.95;37.27
66871;DHT22;53780;44.998;9.926;2023-06-22T09:51:01;37.95;37.65
66871;DHT22;53780;44.998;9.926;2023-06-22T09:54:06;38.07;36.16
66871;DHT22;53780;44.998;9.926;2023-06-22T09:57:10;38.22;35.95
66871;DHT22;53780;44.998;9.926;2023-06-22T10:00:16;38.41;36.67
66871;DHT22;53780;44.998;9.926;2023-06-22T10:03:21;38.62;36.61
66871;DHT22;53780;44.998;9.926;2023-06-22T10:06:26;38.75;36.72
66871;DHT22;53780;44.998;9.926;2023-06-22T10:09:30;38.89;35.77
66871;DHT22;53780;44.998;9.926;2023-06-22T10:12:35;38.82;35.36
66871;DHT22;53780;44.998;9.926;2023-06-22T10:15:39;38.53;35.96
66871;DHT22;53780;44.998;9.926;2023-06-22T10:18:43;38.27;35.95
66871;DHT22;53780;44.998;9.926;2023-06-22T10:21:47;38.07;35.36
66871;DHT22;53780;44.998;9.926;2023-06-22T10:24:53;37.90;35.51
66871;DHT22;53780;44.998;9.926;2023-06-22T10:27:57;37.69;35.49
66871;DHT22;53780;44.998;9.926;2023-06-22T10:31:02;37.59;36.63
66871;DHT22;53780;44.998;9.926;2023-06-22T10:34:06;37.50;37.59
66871;DHT22;53780;44.998;9.926;2023-06-22T10:37:10;37.39;36.95
66871;DHT22;53780;44.998;9.926;2023-06-22T10:40:15;37.25;35.88
66871;DHT22;53780;44.998;9.926;2023-06-22T10:43:20;37.01;35.63
66871;DHT22;53780;44.998;9.926;2023-06-22T10:46:25;36.91;36.26
66871;DHT22;53780;44.998;9.926;2023-06-22T10:49:30;36.88;36.42
66871;DHT22;53780;44.998;9.926;2023-06-22T10:52:33;36.85;36.21
66871;DHT22;53780;44.998;9.926;2023-06-22T10:55:38;36.99;37.93
66871;DHT22;53780;44.998;9.926;2023-06-22T10:58:42;36.98;36.47
66871;DHT22;53780;44.998;9.926;2023-06-22T11:01:46;36.95;37.00
66871;DHT22;53780;44.998;9.926;2023-06-22T11:04:50;37.19;37.32
66871;DHT22;53780;44.998;9.926;2023-06-22T11:07:54;37.33;37.40
66871;DHT22;53780;44.998;9.926;2023-06-22T11:10:58;37.18;37.71
66871;DHT22;53780;44.998;9.926;2023-06-22T11:14:02;36.60;36.43
66871;DHT22;53780;44.998;9.926;2023-06-22T11:17:06;36.02;36.90
66871;DHT22;53780;44.998;9.926;2023-06-22T11:20:11;35.66;38.56
66871;DHT22;53780;44.998;9.926;2023-06-22T11:23:15;35.59;39.75
66871;DHT22;53780;44.998;9.926;2023-06-22T11:26:19;35.48;38.62
66871;DHT22;53780;44.998;9.926;2023-06-22T11:29:26;35.31;39.45
66871;DHT22;53780;44.998;9.926;2023-06-22T11:32:30;35.24;39.79
66871;DHT22;53780;44.998;9.926;2023-06-22T11:35:34;35.29;39.96
66871;DHT22;53780;44.998;9.926;2023-06-22T11:38:37;35.31;41.84
66871;DHT22;53780;44.998;9.926;2023-06-22T11:41:43;35.27;41.08
66871;DHT22;53780;44.998;9.926;2023-06-22T11:44:46;35.29;41.66
66871;DHT22;53780;44.998;9.926;2023-06-22T11:47:50;35.07;40.17
66871;DHT22;53780;44.998;9.926;2023-06-22T11:50:54;34.90;40.85
66871;DHT22;53780;44.998;9.926;2023-06-22T11:53:59;34.75;40.08
66871;DHT22;53780;44.998;9.926;2023-06-22T11:57:03;34.61;40.06
66871;DHT22;53780;44.998;9.926;2023-06-22T12:00:08;34.61;42.18
66871;DHT22;53780;44.998;9.926;2023-06-22T12:03:21;34.51;41.86
66871;DHT22;53780;44.998;9.926;2023-06-22T12:06:25;34.41;41.02
66871;DHT22;53780;44.998;9.926;2023-06-22T12:09:32;34.27;41.22
66871;DHT22;53780;44.998;9.926;2023-06-22T12:12:36;34.18;41.38
66871;DHT22;53780;44.998;9.926;2023-06-22T12:15:40;34.13;41.53
66871;DHT22;53780;44.998;9.926;2023-06-22T12:18:44;34.20;41.73
66871;DHT22;53780;44.998;9.926;2023-06-22T12:21:48;34.28;42.25
66871;DHT22;53780;44.998;9.926;2023-06-22T12:24:52;34.33;42.34
66871;DHT22;53780;44.998;9.926;2023-06-22T12:27:56;34.34;41.47
66871;DHT22;53780;44.998;9.926;2023-06-22T12:30:59;34.33;41.84
66871;DHT22;53780;44.998;9.926;2023-06-22T12:34:04;34.25;41.34
66871;DHT22;53780;44.998;9.926;2023-06-22T12:37:08;34.17;41.19
66871;DHT22;53780;44.998;9.926;2023-06-22T12:40:12;34.14;41.08
66871;DHT22;53780;44.998;9.926;2023-06-22T12:43:16;34.07;40.31
66871;DHT22;53780;44.998;9.926;2023-06-22T12:46:20;33.96;42.18
66871;DHT22;53780;44.998;9.926;2023-06-22T12:49:24;33.90;41.29
66871;DHT22;53780;44.998;9.926;2023-06-22T12:52:30;33.79;40.50
66871;DHT22;53780;44.998;9.926;2023-06-22T12:55:34;33.77;40.25
66871;DHT22;53780;44.998;9.926;2023-06-22T12:58:39;33.70;40.35
66871;DHT22;53780;44.998;9.926;2023-06-22T13:01:43;33.68;41.03
66871;DHT22;53780;44.998;9.926;2023-06-22T13:04:50;33.72;42.13
66871;DHT22;53780;44.998;9.926;2023-06-22T13:07:54;33.74;41.96
66871;DHT22;53780;44.998;9.926;2023-06-22T13:10:58;33.74;42.02
66871;DHT22;53780;44.998;9.926;2023-06-22T13:14:05;33.79;41.82
66871;DHT22;53780;44.998;9.926;2023-06-22T13:17:08;33.77;41.38
66871;DHT22;53780;44.998;9.926;2023-06-22T13:20:12;33.73;41.58
66871;DHT22;53780;44.998;9.926;2023-06-22T13:23:16;33.76;42.06
66871;DHT22;53780;44.998;9.926;2023-06-22T13:26:21;33.73;40.58
66871;DHT22;53780;44.998;9.926;2023-06-22T13:29:25;33.68;41.00
66871;DHT22;53780;44.998;9.926;2023-06-22T13:32:29;33.66;41.72
66871;DHT22;53780;44.998;9.926;2023-06-22T13:35:33;33.66;41.35
66871;DHT22;53780;44.998;9.926;2023-06-22T13:38:39;33.59;41.27
66871;DHT22;53780;44.998;9.926;2023-06-22T13:41:43;33.53;41.13
66871;DHT22;53780;44.998;9.926;2023-06-22T13:44:47;33.52;40.46
66871;DHT22;53780;44.998;9.926;2023-06-22T13:47:51;33.49;41.35
66871;DHT22;53780;44.998;9.926;2023-06-22T13:50:55;33.51;41.09
66871;DHT22;53780;44.998;9.926;2023-06-22T13:53:59;33.45;41.22
66871;DHT22;53780;44.998;9.926;2023-06-22T13:57:03;33.39;41.46
66871;DHT22;53780;44.998;9.926;2023-06-22T14:00:08;33.36;41.19
66871;DHT22;53780;44.998;9.926;2023-06-22T14:03:18;33.29;40.03
66871;DHT22;53780;44.998;9.926;2023-06-22T14:06:21;33.35;40.71
66871;DHT22;53780;44.998;9.926;2023-06-22T14:09:25;33.36;39.96
66871;DHT22;53780;44.998;9.926;2023-06-22T14:12:29;33.36;41.08
66871;DHT22;53780;44.998;9.926;2023-06-22T14:15:33;33.43;41.77
66871;DHT22;53780;44.998;9.926;2023-06-22T14:18:36;33.42;39.90
66871;DHT22;53780;44.998;9.926;2023-06-22T14:21:40;33.43;40.52
66871;DHT22;53780;44.998;9.926;2023-06-22T14:24:45;33.45;40.55
66871;DHT22;53780;44.998;9.926;2023-06-22T14:27:49;33.39;40.17
66871;DHT22;53780;44.998;9.926;2023-06-22T14:30:54;33.39;39.87
66871;DHT22;53780;44.998;9.926;2023-06-22T14:33:57;33.38;40.14
66871;DHT22;53780;44.998;9.926;2023-06-22T14:37:02;33.31;40.84
66871;DHT22;53780;44.998;9.926;2023-06-22T14:40:06;33.26;41.76
66871;DHT22;53780;44.998;9.926;2023-06-22T14:43:10;33.25;41.75
66871;DHT22;53780;44.998;9.926;2023-06-22T14:46:15;33.26;41.84
66871;DHT22;53780;44.998;9.926;2023-06-22T14:49:19;33.24;43.14
66871;DHT22;53780;44.998;9.926;2023-06-22T14:52:23;33.17;42.76
66871;DHT22;53780;44.998;9.926;2023-06-22T14:55:27;33.14;43.51
66871;DHT22;53780;44.998;9.926;2023-06-22T14:58:31;33.11;43.50
66871;DHT22;53780;44.998;9.926;2023-06-22T15:01:38;33.12;43.17
66871;DHT22;53780;44.998;9.926;2023-06-22T15:04:42;33.11;43.63
66871;DHT22;53780;44.998;9.926;2023-06-22T15:07:46;33.05;43.77
66871;DHT22;53780;44.998;9.926;2023-06-22T15:10:50;33.01;43.66
66871;DHT22;53780;44.998;9.926;2023-06-22T15:13:58;32.98;43.80
66871;DHT22;53780;44.998;9.926;2023-06-22T15:17:02;33.03;44.34
66871;DHT22;53780;44.998;9.926;2023-06-22T15:20:06;33.00;44.53
66871;DHT22;53780;44.998;9.926;2023-06-22T15:23:10;33.00;44.71
66871;DHT22;53780;44.998;9.926;2023-06-22T15:26:14;32.92;44.29
66871;DHT22;53780;44.998;9.926;2023-06-22T15:29:18;32.92;44.62
66871;DHT22;53780;44.998;9.926;2023-06-22T15:32:21;32.92;45.10
66871;DHT22;53780;44.998;9.926;2023-06-22T15:35:25;32.92;45.06
66871;DHT22;53780;44.998;9.926;2023-06-22T15:38:29;32.94;44.88
66871;DHT22;53780;44.998;9.926;2023-06-22T15:41:34;32.91;44.90
66871;DHT22;53780;44.998;9.926;2023-06-22T15:44:38;32.97;44.92
66871;DHT22;53780;44.998;9.926;2023-06-22T15:47:42;33.05;44.77
66871;DHT22;53780;44.998;9.926;2023-06-22T15:50:46;33.14;44.43
66871;DHT22;53780;44.998;9.926;2023-06-22T15:53:49;33.14;44.87
66871;DHT22;53780;44.998;9.926;2023-06-22T15:56:53;33.10;45.63
66871;DHT22;53780;44.998;9.926;2023-06-22T15:59:57;33.10;45.93
66871;DHT22;53780;44.998;9.926;2023-06-22T16:03:00;33.07;44.22
66871;DHT22;53780;44.998;9.926;2023-06-22T16:06:05;33.07;44.17
66871;DHT22;53780;44.998;9.926;2023-06-22T16:09:09;33.12;43.94
66871;DHT22;53780;44.998;9.926;2023-06-22T16:12:12;33.12;43.99
66871;DHT22;53780;44.998;9.926;2023-06-22T16:15:16;33.10;44.63
66871;DHT22;53780;44.998;9.926;2023-06-22T16:18:20;33.08;44.68
66871;DHT22;53780;44.998;9.926;2023-06-22T16:21:24;33.05;45.04
66871;DHT22;53780;44.998;9.926;2023-06-22T16:24:28;33.10;44.81
66871;DHT22;53780;44.998;9.926;2023-06-22T16:27:31;33.05;45.17
66871;DHT22;53780;44.998;9.926;2023-06-22T16:30:35;33.07;45.47
66871;DHT22;53780;44.998;9.926;2023-06-22T16:33:39;33.07;45.63
66871;DHT22;53780;44.998;9.926;2023-06-22T16:36:47;33.04;45.51
66871;DHT22;53780;44.998;9.926;2023-06-22T16:39:51;33.04;45.24
66871;DHT22;53780;44.998;9.926;2023-06-22T16:42:55;33.00;45.33
66871;DHT22;53780;44.998;9.926;2023-06-22T16:45:59;32.98;45.74
66871;DHT22;53780;44.998;9.926;2023-06-22T16:49:03;32.87;46.48
66871;DHT22;53780;44.998;9.926;2023-06-22T16:52:07;32.78;46.75
66871;DHT22;53780;44.998;9.926;2023-06-22T16:55:11;32.69;47.11
66871;DHT22;53780;44.998;9.926;2023-06-22T16:58:15;32.61;47.15
66871;DHT22;53780;44.998;9.926;2023-06-22T17:01:25;32.56;47.83
66871;DHT22;53780;44.998;9.926;2023-06-22T17:04:30;32.48;47.79
66871;DHT22;53780;44.998;9.926;2023-06-22T17:07:39;32.46;47.58
66871;DHT22;53780;44.998;9.926;2023-06-22T17:10:46;32.40;48.65
66871;DHT22;53780;44.998;9.926;2023-06-22T17:13:50;32.35;48.32
66871;DHT22;53780;44.998;9.926;2023-06-22T17:16:55;32.26;48.90
66871;DHT22;53780;44.998;9.926;2023-06-22T17:19:59;32.16;50.43
66871;DHT22;53780;44.998;9.926;2023-06-22T17:23:03;32.09;50.93
66871;DHT22;53780;44.998;9.926;2023-06-22T17:26:07;32.04;51.09
66871;DHT22;53780;44.998;9.926;2023-06-22T17:29:12;32.02;51.75
66871;DHT22;53780;44.998;9.926;2023-06-22T17:32:20;31.98;51.77
66871;DHT22;53780;44.998;9.926;2023-06-22T17:35:23;31.94;52.07
66871;DHT22;53780;44.998;9.926;2023-06-22T17:38:27;31.87;52.85
66871;DHT22;53780;44.998;9.926;2023-06-22T17:41:32;31.81;53.56
66871;DHT22;53780;44.998;9.926;2023-06-22T17:44:36;31.70;52.91
66871;DHT22;53780;44.998;9.926;2023-06-22T17:47:40;31.67;52.62
66871;DHT22;53780;44.998;9.926;2023-06-22T17:50:44;31.63;52.51
66871;DHT22;53780;44.998;9.926;2023-06-22T17:53:48;31.60;52.00
66871;DHT22;53780;44.998;9.926;2023-06-22T17:56:53;31.56;52.17
66871;DHT22;53780;44.998;9.926;2023-06-22T17:59:57;31.51;52.38
66871;DHT22;53780;44.998;9.926;2023-06-22T18:03:01;31.46;52.40
66871;DHT22;53780;44.998;9.926;2023-06-22T18:06:05;31.41;52.22
66871;DHT22;53780;44.998;9.926;2023-06-22T18:09:10;31.37;51.70
66871;DHT22;53780;44.998;9.926;2023-06-22T18:12:14;31.34;52.16
66871;DHT22;53780;44.998;9.926;2023-06-22T18:15:19;31.30;52.21
66871;DHT22;53780;44.998;9.926;2023-06-22T18:18:23;31.25;52.33
66871;DHT22;53780;44.998;9.926;2023-06-22T18:21:29;31.20;52.42
66871;DHT22;53780;44.998;9.926;2023-06-22T18:24:34;31.15;52.33
66871;DHT22;53780;44.998;9.926;2023-06-22T18:27:38;31.13;52.16
66871;DHT22;53780;44.998;9.926;2023-06-22T18:30:44;31.12;52.00
66871;DHT22;53780;44.998;9.926;2023-06-22T18:33:53;31.05;51.87
66871;DHT22;53780;44.998;9.926;2023-06-22T18:36:58;31.03;51.24
66871;DHT22;53780;44.998;9.926;2023-06-22T18:40:03;31.06;51.41
66871;DHT22;53780;44.998;9.926;2023-06-22T18:43:10;31.03;51.62
66871;DHT22;53780;44.998;9.926;2023-06-22T18:46:35;31.00;51.83
66871;DHT22;53780;44.998;9.926;2023-06-22T18:52:43;30.98;51.44
66871;DHT22;53780;44.998;9.926;2023-06-22T18:55:49;30.96;51.45
66871;DHT22;53780;44.998;9.926;2023-06-22T18:58:57;30.93;51.64
66871;DHT22;53780;44.998;9.926;2023-06-22T19:02:01;30.91;51.80
66871;DHT22;53780;44.998;9.926;2023-06-22T19:05:41;30.86;52.20
66871;DHT22;53780;44.998;9.926;2023-06-22T19:09:13;30.85;52.46
66871;DHT22;53780;44.998;9.926;2023-06-22T19:12:22;30.81;52.52
66871;DHT22;53780;44.998;9.926;2023-06-22T19:15:31;30.82;52.79
66871;DHT22;53780;44.998;9.926;2023-06-22T19:18:41;30.76;52.98
66871;DHT22;53780;44.998;9.926;2023-06-22T19:21:58;30.75;53.08
66871;DHT22;53780;44.998;9.926;2023-06-22T19:25:04;30.68;53.39
66871;DHT22;53780;44.998;9.926;2023-06-22T19:28:20;30.63;53.56
66871;DHT22;53780;44.998;9.926;2023-06-22T19:31:24;30.58;53.51
66871;DHT22;53780;44.998;9.926;2023-06-22T19:34:34;30.54;53.64
66871;DHT22;53780;44.998;9.926;2023-06-22T19:37:39;30.53;53.61
66871;DHT22;53780;44.998;9.926;2023-06-22T19:40:46;30.47;53.69